Killeen, TX (76543)

10:54 PM CDT on July 29, 2016 (GMT -0500)
W. Birch St. | | Change Station

Elev 715 ft 31.08 °N, 97.59 °W | Updated 20 seconds ago

Clear
Clear
82.6 °F
Feels Like 87 °F
N
0.0
Wind Variable Wind from ESE
Gusts 2.7 mph

Today
High -- | Low -- °F
--% Chance of Precip.
Yesterday
High -- | Low -- °F
Precip. -- in
Pressure 29.96 in
Visibility 10.0 miles
Clouds Clear
Heat Index 87 °F
Dew Point 71 °F
Humidity 68%
Rainfall 0.00 in
Snow Depth Not available.
6:46 AM 8:27 PM
Waning Crescent, 16% visible
METAR KILE 300256Z AUTO 17005KT 10SM CLR 29/19 A2995 RMK AO2 SLP144 T02940194 53012
Pressure 29.96 in
Visibility 10.0 miles
Clouds Clear
Heat Index 87 °F
Dew Point 71 °F
Humidity 68%
Rainfall 0.00 in
Snow Depth Not available.
6:46 AM 8:27 PM
Waning Crescent, 16% visible
METAR KILE 300256Z AUTO 17005KT 10SM CLR 29/19 A2995 RMK AO2 SLP144 T02940194 53012

10-Day Weather Forecast

Almanac

Astronomy

Jul. 29, 2016 Rise Set
Actual Time
Civil Twilight
Nautical Twilight
Astronomical Twilight
Moon
Length of Visible Light
Length of Day
Tomorrow will be .
, % of the Moon is Illuminated

Today's Extremes

State Highs State Lows

Community

WunderPhotos

Upload Photos

1,928,500 photos uploaded!

WunderBlog® & News

Nearby

Air Quality

  Air Quality AQ Index Pollutant
Not available.

Snow Depth

Station Depth Elevation

Earthquake Activity

City Distance Mag. Time & Date
Minimum magnitude displayed is 2.5.

Coastal Water Temperatures

Place Temperature

Stations

Nearby Weather Stations

Station Location Temp. Windchill Dew Point Humidity Wind Precip. Elev Updated Type
                   

Watches & Warnings

There are currently no watches in effect.